sensor_id;sensor_type;location;lat;lon;timestamp;temperature;humidity
50606;DHT22;36557;53.572;10.170;2023-02-15T00:01:24;4.00;99.90
50606;DHT22;36557;53.572;10.170;2023-02-15T00:03:50;4.10;99.90
50606;DHT22;36557;53.572;10.170;2023-02-15T00:06:16;4.10;99.90
50606;DHT22;36557;53.572;10.170;2023-02-15T00:08:42;4.10;99.90
50606;DHT22;36557;53.572;10.170;2023-02-15T00:11:13;4.10;99.90
50606;DHT22;36557;53.572;10.170;2023-02-15T00:13:39;4.10;99.90
50606;DHT22;36557;53.572;10.170;2023-02-15T00:16:10;4.10;99.90
50606;DHT22;36557;53.572;10.170;2023-02-15T00:18:39;4.10;99.90
50606;DHT22;36557;53.572;10.170;2023-02-15T00:21:09;4.20;99.90
50606;DHT22;36557;53.572;10.170;2023-02-15T00:23:36;4.10;99.90
50606;DHT22;36557;53.572;10.170;2023-02-15T00:26:08;4.10;99.90
50606;DHT22;36557;53.572;10.170;2023-02-15T00:28:34;4.10;99.90
50606;DHT22;36557;53.572;10.170;2023-02-15T00:31:07;4.10;99.90
50606;DHT22;36557;53.572;10.170;2023-02-15T00:33:33;4.20;99.90
50606;DHT22;36557;53.572;10.170;2023-02-15T00:36:00;4.20;99.90
50606;DHT22;36557;53.572;10.170;2023-02-15T00:38:29;4.20;99.90
50606;DHT22;36557;53.572;10.170;2023-02-15T00:40:57;4.20;99.90
50606;DHT22;36557;53.572;10.170;2023-02-15T00:43:23;4.10;99.90
50606;DHT22;36557;53.572;10.170;2023-02-15T00:45:48;4.10;99.90
50606;DHT22;36557;53.572;10.170;2023-02-15T00:48:15;4.20;99.90
50606;DHT22;36557;53.572;10.170;2023-02-15T00:50:40;4.10;99.90
50606;DHT22;36557;53.572;10.170;2023-02-15T00:53:06;4.20;99.90
50606;DHT22;36557;53.572;10.170;2023-02-15T00:55:32;4.10;99.90
50606;DHT22;36557;53.572;10.170;2023-02-15T00:57:57;4.20;99.90
50606;DHT22;36557;53.572;10.170;2023-02-15T01:00:23;4.20;99.90
50606;DHT22;36557;53.572;10.170;2023-02-15T01:02:49;4.20;99.90
50606;DHT22;36557;53.572;10.170;2023-02-15T01:05:14;4.20;99.90
50606;DHT22;36557;53.572;10.170;2023-02-15T01:07:40;4.20;99.90
50606;DHT22;36557;53.572;10.170;2023-02-15T01:10:07;4.20;99.90
50606;DHT22;36557;53.572;10.170;2023-02-15T01:12:33;4.20;99.90
50606;DHT22;36557;53.572;10.170;2023-02-15T01:14:59;4.20;99.90
50606;DHT22;36557;53.572;10.170;2023-02-15T01:17:24;4.20;99.90
50606;DHT22;36557;53.572;10.170;2023-02-15T01:19:50;4.20;99.90
50606;DHT22;36557;53.572;10.170;2023-02-15T01:22:17;4.20;99.90
50606;DHT22;36557;53.572;10.170;2023-02-15T01:24:43;4.20;99.90
50606;DHT22;36557;53.572;10.170;2023-02-15T01:27:09;4.20;99.90
50606;DHT22;36557;53.572;10.170;2023-02-15T01:29:35;4.20;99.90
50606;DHT22;36557;53.572;10.170;2023-02-15T01:32:00;4.20;99.90
50606;DHT22;36557;53.572;10.170;2023-02-15T01:34:26;4.10;99.90
50606;DHT22;36557;53.572;10.170;2023-02-15T01:36:52;4.10;99.90
50606;DHT22;36557;53.572;10.170;2023-02-15T01:39:17;4.20;99.90
50606;DHT22;36557;53.572;10.170;2023-02-15T01:41:43;4.10;99.90
50606;DHT22;36557;53.572;10.170;2023-02-15T01:50:37;4.10;99.90
50606;DHT22;36557;53.572;10.170;2023-02-15T01:53:27;4.10;99.90
50606;DHT22;36557;53.572;10.170;2023-02-15T01:58:28;4.10;99.90
50606;DHT22;36557;53.572;10.170;2023-02-15T02:00:59;4.00;99.90
50606;DHT22;36557;53.572;10.170;2023-02-15T02:06:13;4.10;99.90
50606;DHT22;36557;53.572;10.170;2023-02-15T02:08:39;4.10;99.90
50606;DHT22;36557;53.572;10.170;2023-02-15T02:11:15;4.10;99.90
50606;DHT22;36557;53.572;10.170;2023-02-15T02:13:42;4.10;99.90
50606;DHT22;36557;53.572;10.170;2023-02-15T02:16:16;4.10;99.90
50606;DHT22;36557;53.572;10.170;2023-02-15T02:33:24;4.00;99.90
50606;DHT22;36557;53.572;10.170;2023-02-15T02:36:02;4.00;99.90
50606;DHT22;36557;53.572;10.170;2023-02-15T02:42:36;3.90;99.90
50606;DHT22;36557;53.572;10.170;2023-02-15T02:47:09;3.80;99.90
50606;DHT22;36557;53.572;10.170;2023-02-15T02:49:42;3.80;99.90
50606;DHT22;36557;53.572;10.170;2023-02-15T02:52:35;3.80;99.90
50606;DHT22;36557;53.572;10.170;2023-02-15T02:57:41;3.70;99.90
50606;DHT22;36557;53.572;10.170;2023-02-15T03:00:08;3.70;99.90
50606;DHT22;36557;53.572;10.170;2023-02-15T03:02:40;3.70;99.90
50606;DHT22;36557;53.572;10.170;2023-02-15T03:05:13;3.70;99.90
50606;DHT22;36557;53.572;10.170;2023-02-15T03:07:41;3.70;99.90
50606;DHT22;36557;53.572;10.170;2023-02-15T03:10:08;3.70;99.90
50606;DHT22;36557;53.572;10.170;2023-02-15T03:12:37;3.80;99.90
50606;DHT22;36557;53.572;10.170;2023-02-15T03:17:34;3.60;99.90
50606;DHT22;36557;53.572;10.170;2023-02-15T03:20:06;3.60;99.90
50606;DHT22;36557;53.572;10.170;2023-02-15T03:22:36;3.60;99.90
50606;DHT22;36557;53.572;10.170;2023-02-15T03:25:10;3.50;99.90
50606;DHT22;36557;53.572;10.170;2023-02-15T03:27:40;3.60;99.90
50606;DHT22;36557;53.572;10.170;2023-02-15T03:30:09;3.50;99.90
50606;DHT22;36557;53.572;10.170;2023-02-15T03:32:37;3.60;99.90
50606;DHT22;36557;53.572;10.170;2023-02-15T03:35:05;3.60;99.90
50606;DHT22;36557;53.572;10.170;2023-02-15T03:37:47;3.50;99.90
50606;DHT22;36557;53.572;10.170;2023-02-15T03:43:15;3.50;99.90
50606;DHT22;36557;53.572;10.170;2023-02-15T03:45:47;3.50;99.90
50606;DHT22;36557;53.572;10.170;2023-02-15T03:48:36;3.40;99.90
50606;DHT22;36557;53.572;10.170;2023-02-15T03:51:10;3.40;99.90
50606;DHT22;36557;53.572;10.170;2023-02-15T03:53:57;3.50;99.90
50606;DHT22;36557;53.572;10.170;2023-02-15T03:56:24;3.40;99.90
50606;DHT22;36557;53.572;10.170;2023-02-15T03:58:50;3.40;99.90
50606;DHT22;36557;53.572;10.170;2023-02-15T04:01:36;3.40;99.90
50606;DHT22;36557;53.572;10.170;2023-02-15T04:04:37;3.40;99.90
50606;DHT22;36557;53.572;10.170;2023-02-15T04:07:05;3.30;99.90
50606;DHT22;36557;53.572;10.170;2023-02-15T04:09:31;3.30;99.90
50606;DHT22;36557;53.572;10.170;2023-02-15T04:12:15;3.40;99.90
50606;DHT22;36557;53.572;10.170;2023-02-15T04:14:41;3.40;99.90
50606;DHT22;36557;53.572;10.170;2023-02-15T04:17:25;3.40;99.90
50606;DHT22;36557;53.572;10.170;2023-02-15T04:19:51;3.30;99.90
50606;DHT22;36557;53.572;10.170;2023-02-15T04:22:35;3.30;99.90
50606;DHT22;36557;53.572;10.170;2023-02-15T04:25:19;3.30;99.90
50606;DHT22;36557;53.572;10.170;2023-02-15T04:27:53;3.30;99.90
50606;DHT22;36557;53.572;10.170;2023-02-15T04:30:24;3.20;99.90
50606;DHT22;36557;53.572;10.170;2023-02-15T04:32:50;3.20;99.90
50606;DHT22;36557;53.572;10.170;2023-02-15T04:35:16;3.20;99.90
50606;DHT22;36557;53.572;10.170;2023-02-15T04:37:43;3.20;99.90
50606;DHT22;36557;53.572;10.170;2023-02-15T04:40:11;3.20;99.90
50606;DHT22;36557;53.572;10.170;2023-02-15T04:42:37;3.10;99.90
50606;DHT22;36557;53.572;10.170;2023-02-15T04:45:03;3.10;99.90
50606;DHT22;36557;53.572;10.170;2023-02-15T04:47:29;3.10;99.90
50606;DHT22;36557;53.572;10.170;2023-02-15T04:49:54;3.10;99.90
50606;DHT22;36557;53.572;10.170;2023-02-15T04:52:20;3.00;99.90
50606;DHT22;36557;53.572;10.170;2023-02-15T04:54:46;3.10;99.90
50606;DHT22;36557;53.572;10.170;2023-02-15T04:57:12;2.90;99.90
50606;DHT22;36557;53.572;10.170;2023-02-15T04:59:38;2.90;99.90
50606;DHT22;36557;53.572;10.170;2023-02-15T05:02:04;2.90;99.90
50606;DHT22;36557;53.572;10.170;2023-02-15T05:04:29;2.90;99.90
50606;DHT22;36557;53.572;10.170;2023-02-15T05:06:55;3.00;99.90
50606;DHT22;36557;53.572;10.170;2023-02-15T05:09:21;3.00;99.90
50606;DHT22;36557;53.572;10.170;2023-02-15T05:11:47;3.00;99.90
50606;DHT22;36557;53.572;10.170;2023-02-15T05:14:12;2.90;99.90
50606;DHT22;36557;53.572;10.170;2023-02-15T05:16:38;2.90;99.90
50606;DHT22;36557;53.572;10.170;2023-02-15T05:19:04;2.90;99.90
50606;DHT22;36557;53.572;10.170;2023-02-15T05:21:31;2.70;99.90
50606;DHT22;36557;53.572;10.170;2023-02-15T05:23:57;2.70;99.90
50606;DHT22;36557;53.572;10.170;2023-02-15T05:26:24;2.60;99.90
50606;DHT22;36557;53.572;10.170;2023-02-15T05:29:08;2.60;99.90
50606;DHT22;36557;53.572;10.170;2023-02-15T05:31:35;2.60;99.90
50606;DHT22;36557;53.572;10.170;2023-02-15T05:34:01;2.60;99.90
50606;DHT22;36557;53.572;10.170;2023-02-15T05:36:27;2.60;99.90
50606;DHT22;36557;53.572;10.170;2023-02-15T05:38:54;2.60;99.90
50606;DHT22;36557;53.572;10.170;2023-02-15T05:41:20;2.70;99.90
50606;DHT22;36557;53.572;10.170;2023-02-15T05:43:46;2.60;99.90
50606;DHT22;36557;53.572;10.170;2023-02-15T05:46:12;2.50;99.90
50606;DHT22;36557;53.572;10.170;2023-02-15T05:48:38;2.60;99.90
50606;DHT22;36557;53.572;10.170;2023-02-15T05:51:10;2.50;99.90
50606;DHT22;36557;53.572;10.170;2023-02-15T05:53:39;2.50;99.90
50606;DHT22;36557;53.572;10.170;2023-02-15T05:56:06;2.50;99.90
50606;DHT22;36557;53.572;10.170;2023-02-15T05:58:35;2.40;99.90
50606;DHT22;36557;53.572;10.170;2023-02-15T06:01:11;2.50;99.90
50606;DHT22;36557;53.572;10.170;2023-02-15T06:03:37;2.40;99.90
50606;DHT22;36557;53.572;10.170;2023-02-15T06:06:03;2.40;99.90
50606;DHT22;36557;53.572;10.170;2023-02-15T06:08:30;2.40;99.90
50606;DHT22;36557;53.572;10.170;2023-02-15T06:10:56;2.50;99.90
50606;DHT22;36557;53.572;10.170;2023-02-15T06:13:22;2.40;99.90
50606;DHT22;36557;53.572;10.170;2023-02-15T06:15:48;2.30;99.90
50606;DHT22;36557;53.572;10.170;2023-02-15T06:18:14;2.30;99.90
50606;DHT22;36557;53.572;10.170;2023-02-15T06:20:39;2.30;99.90
50606;DHT22;36557;53.572;10.170;2023-02-15T06:23:05;2.30;99.90
50606;DHT22;36557;53.572;10.170;2023-02-15T06:25:31;2.20;99.90
50606;DHT22;36557;53.572;10.170;2023-02-15T06:27:56;2.20;99.90
50606;DHT22;36557;53.572;10.170;2023-02-15T06:30:22;2.10;99.90
50606;DHT22;36557;53.572;10.170;2023-02-15T06:32:48;2.20;99.90
50606;DHT22;36557;53.572;10.170;2023-02-15T06:35:13;2.20;99.90
50606;DHT22;36557;53.572;10.170;2023-02-15T06:37:39;2.20;99.90
50606;DHT22;36557;53.572;10.170;2023-02-15T06:40:06;2.20;99.90
50606;DHT22;36557;53.572;10.170;2023-02-15T06:42:32;2.20;99.90
50606;DHT22;36557;53.572;10.170;2023-02-15T06:44:57;2.10;99.90
50606;DHT22;36557;53.572;10.170;2023-02-15T06:47:24;2.10;99.90
50606;DHT22;36557;53.572;10.170;2023-02-15T06:49:50;2.20;99.90
50606;DHT22;36557;53.572;10.170;2023-02-15T06:52:15;2.30;99.90
50606;DHT22;36557;53.572;10.170;2023-02-15T06:54:41;2.10;99.90
50606;DHT22;36557;53.572;10.170;2023-02-15T06:57:07;2.20;99.90
50606;DHT22;36557;53.572;10.170;2023-02-15T06:59:32;2.30;99.90
50606;DHT22;36557;53.572;10.170;2023-02-15T07:01:58;2.30;99.90
50606;DHT22;36557;53.572;10.170;2023-02-15T07:04:24;2.30;99.90
50606;DHT22;36557;53.572;10.170;2023-02-15T07:06:49;2.30;99.90
50606;DHT22;36557;53.572;10.170;2023-02-15T07:09:15;2.20;99.90
50606;DHT22;36557;53.572;10.170;2023-02-15T07:11:41;2.30;99.90
50606;DHT22;36557;53.572;10.170;2023-02-15T07:14:25;2.30;99.90
50606;DHT22;36557;53.572;10.170;2023-02-15T07:16:51;2.30;99.90
50606;DHT22;36557;53.572;10.170;2023-02-15T07:19:17;2.30;99.90
50606;DHT22;36557;53.572;10.170;2023-02-15T07:21:42;2.30;99.90
50606;DHT22;36557;53.572;10.170;2023-02-15T07:24:10;2.30;99.90
50606;DHT22;36557;53.572;10.170;2023-02-15T07:26:36;2.30;99.90
50606;DHT22;36557;53.572;10.170;2023-02-15T07:29:02;2.20;99.90
50606;DHT22;36557;53.572;10.170;2023-02-15T07:31:28;2.20;99.90
50606;DHT22;36557;53.572;10.170;2023-02-15T07:33:53;2.30;99.90
50606;DHT22;36557;53.572;10.170;2023-02-15T07:36:19;2.20;99.90
50606;DHT22;36557;53.572;10.170;2023-02-15T07:38:45;2.20;99.90
50606;DHT22;36557;53.572;10.170;2023-02-15T07:41:12;2.30;99.90
50606;DHT22;36557;53.572;10.170;2023-02-15T07:43:40;2.30;99.90
50606;DHT22;36557;53.572;10.170;2023-02-15T07:46:08;2.20;99.90
50606;DHT22;36557;53.572;10.170;2023-02-15T07:48:35;2.40;99.90
50606;DHT22;36557;53.572;10.170;2023-02-15T07:51:03;2.40;99.90
50606;DHT22;36557;53.572;10.170;2023-02-15T07:53:30;2.40;99.90
50606;DHT22;36557;53.572;10.170;2023-02-15T07:56:00;2.40;99.90
50606;DHT22;36557;53.572;10.170;2023-02-15T07:58:25;2.40;99.90
50606;DHT22;36557;53.572;10.170;2023-02-15T08:01:11;2.40;99.90
50606;DHT22;36557;53.572;10.170;2023-02-15T08:03:37;2.30;99.90
50606;DHT22;36557;53.572;10.170;2023-02-15T08:06:03;2.50;99.90
50606;DHT22;36557;53.572;10.170;2023-02-15T08:08:29;2.30;99.90
50606;DHT22;36557;53.572;10.170;2023-02-15T08:11:06;2.30;99.90
50606;DHT22;36557;53.572;10.170;2023-02-15T08:13:52;2.30;99.90
50606;DHT22;36557;53.572;10.170;2023-02-15T08:18:50;2.30;99.90
50606;DHT22;36557;53.572;10.170;2023-02-15T08:21:16;2.20;99.90
50606;DHT22;36557;53.572;10.170;2023-02-15T08:23:41;2.20;99.90
50606;DHT22;36557;53.572;10.170;2023-02-15T08:26:07;2.30;99.90
50606;DHT22;36557;53.572;10.170;2023-02-15T08:28:33;2.30;99.90
50606;DHT22;36557;53.572;10.170;2023-02-15T08:31:25;2.40;99.90
50606;DHT22;36557;53.572;10.170;2023-02-15T08:33:53;2.40;99.90
50606;DHT22;36557;53.572;10.170;2023-02-15T08:36:21;2.50;99.90
50606;DHT22;36557;53.572;10.170;2023-02-15T08:38:47;2.50;99.90
50606;DHT22;36557;53.572;10.170;2023-02-15T08:41:14;2.10;99.90
50606;DHT22;36557;53.572;10.170;2023-02-15T08:43:41;2.20;99.90
50606;DHT22;36557;53.572;10.170;2023-02-15T08:46:08;2.20;99.90
50606;DHT22;36557;53.572;10.170;2023-02-15T08:48:34;2.10;99.90
50606;DHT22;36557;53.572;10.170;2023-02-15T08:51:11;2.10;99.90
50606;DHT22;36557;53.572;10.170;2023-02-15T08:53:38;2.10;99.90
50606;DHT22;36557;53.572;10.170;2023-02-15T08:56:04;2.30;99.90
50606;DHT22;36557;53.572;10.170;2023-02-15T08:58:30;2.30;99.90
50606;DHT22;36557;53.572;10.170;2023-02-15T09:00:56;2.30;99.90
50606;DHT22;36557;53.572;10.170;2023-02-15T09:03:23;2.30;99.90
50606;DHT22;36557;53.572;10.170;2023-02-15T09:05:49;2.20;99.90
50606;DHT22;36557;53.572;10.170;2023-02-15T09:08:15;2.00;99.90
50606;DHT22;36557;53.572;10.170;2023-02-15T09:10:40;2.10;99.90
50606;DHT22;36557;53.572;10.170;2023-02-15T09:13:06;2.30;99.90
50606;DHT22;36557;53.572;10.170;2023-02-15T09:15:32;2.40;99.90
50606;DHT22;36557;53.572;10.170;2023-02-15T09:17:58;2.50;99.90
50606;DHT22;36557;53.572;10.170;2023-02-15T09:20:31;2.50;99.90
50606;DHT22;36557;53.572;10.170;2023-02-15T09:22:57;2.60;99.90
50606;DHT22;36557;53.572;10.170;2023-02-15T09:25:23;2.70;99.90
50606;DHT22;36557;53.572;10.170;2023-02-15T09:27:49;2.60;99.90
50606;DHT22;36557;53.572;10.170;2023-02-15T09:30:14;2.70;99.90
50606;DHT22;36557;53.572;10.170;2023-02-15T09:32:40;2.60;99.90
50606;DHT22;36557;53.572;10.170;2023-02-15T09:35:06;2.60;99.90
50606;DHT22;36557;53.572;10.170;2023-02-15T09:37:32;2.60;99.90
50606;DHT22;36557;53.572;10.170;2023-02-15T09:39:58;2.90;99.90
50606;DHT22;36557;53.572;10.170;2023-02-15T09:48:24;3.00;99.90
50606;DHT22;36557;53.572;10.170;2023-02-15T10:15:38;3.20;99.90
50606;DHT22;36557;53.572;10.170;2023-02-15T10:26:28;3.20;99.90
50606;DHT22;36557;53.572;10.170;2023-02-15T10:29:09;3.20;99.90
50606;DHT22;36557;53.572;10.170;2023-02-15T10:32:20;3.20;99.90
50606;DHT22;36557;53.572;10.170;2023-02-15T10:35:09;3.40;99.90
50606;DHT22;36557;53.572;10.170;2023-02-15T10:40:35;3.60;99.90
50606;DHT22;36557;53.572;10.170;2023-02-15T10:46:32;3.60;99.90
50606;DHT22;36557;53.572;10.170;2023-02-15T10:49:20;3.80;99.90
50606;DHT22;36557;53.572;10.170;2023-02-15T10:59:55;3.80;99.90
50606;DHT22;36557;53.572;10.170;2023-02-15T11:02:46;3.70;99.90
50606;DHT22;36557;53.572;10.170;2023-02-15T11:05:38;3.90;99.90
50606;DHT22;36557;53.572;10.170;2023-02-15T11:08:09;4.10;99.90
50606;DHT22;36557;53.572;10.170;2023-02-15T11:10:37;4.10;99.90
50606;DHT22;36557;53.572;10.170;2023-02-15T11:13:34;4.00;99.90
50606;DHT22;36557;53.572;10.170;2023-02-15T11:16:21;4.30;99.90
50606;DHT22;36557;53.572;10.170;2023-02-15T11:19:08;4.30;99.90
50606;DHT22;36557;53.572;10.170;2023-02-15T11:21:49;4.30;99.90
50606;DHT22;36557;53.572;10.170;2023-02-15T11:24:20;4.50;99.90
50606;DHT22;36557;53.572;10.170;2023-02-15T11:27:10;4.50;99.90
50606;DHT22;36557;53.572;10.170;2023-02-15T11:30:13;4.20;99.90
50606;DHT22;36557;53.572;10.170;2023-02-15T11:32:40;4.30;99.90
50606;DHT22;36557;53.572;10.170;2023-02-15T11:40:21;4.30;99.90
50606;DHT22;36557;53.572;10.170;2023-02-15T11:42:49;4.50;99.90
50606;DHT22;36557;53.572;10.170;2023-02-15T11:47:45;4.30;99.90
50606;DHT22;36557;53.572;10.170;2023-02-15T11:50:16;4.50;99.90
50606;DHT22;36557;53.572;10.170;2023-02-15T11:52:43;4.40;99.90
50606;DHT22;36557;53.572;10.170;2023-02-15T11:55:21;4.70;99.90
50606;DHT22;36557;53.572;10.170;2023-02-15T12:02:00;5.20;99.90
50606;DHT22;36557;53.572;10.170;2023-02-15T12:04:02;5.10;99.90
50606;DHT22;36557;53.572;10.170;2023-02-15T12:06:32;4.90;99.90
50606;DHT22;36557;53.572;10.170;2023-02-15T12:11:44;5.10;99.90
50606;DHT22;36557;53.572;10.170;2023-02-15T12:14:13;5.00;99.90
50606;DHT22;36557;53.572;10.170;2023-02-15T12:16:51;5.00;99.90
50606;DHT22;36557;53.572;10.170;2023-02-15T12:21:54;5.20;99.90
50606;DHT22;36557;53.572;10.170;2023-02-15T12:24:36;5.40;99.90
50606;DHT22;36557;53.572;10.170;2023-02-15T12:27:15;5.50;99.90
50606;DHT22;36557;53.572;10.170;2023-02-15T12:29:52;5.70;99.90
50606;DHT22;36557;53.572;10.170;2023-02-15T12:32:24;5.70;99.90
50606;DHT22;36557;53.572;10.170;2023-02-15T12:34:52;5.70;99.90
50606;DHT22;36557;53.572;10.170;2023-02-15T12:37:26;5.50;99.90
50606;DHT22;36557;53.572;10.170;2023-02-15T12:39:56;5.30;99.90
50606;DHT22;36557;53.572;10.170;2023-02-15T12:42:23;5.20;99.90
50606;DHT22;36557;53.572;10.170;2023-02-15T12:45:04;5.40;99.90
50606;DHT22;36557;53.572;10.170;2023-02-15T12:47:44;5.50;99.90
50606;DHT22;36557;53.572;10.170;2023-02-15T12:53:02;5.30;99.90
50606;DHT22;36557;53.572;10.170;2023-02-15T12:55:31;5.40;99.90
50606;DHT22;36557;53.572;10.170;2023-02-15T12:58:16;5.40;99.90
50606;DHT22;36557;53.572;10.170;2023-02-15T13:00:43;5.50;99.90
50606;DHT22;36557;53.572;10.170;2023-02-15T13:03:18;5.40;99.90
50606;DHT22;36557;53.572;10.170;2023-02-15T13:05:44;5.60;99.90
50606;DHT22;36557;53.572;10.170;2023-02-15T13:08:16;5.60;99.90
50606;DHT22;36557;53.572;10.170;2023-02-15T13:11:09;5.70;99.90
50606;DHT22;36557;53.572;10.170;2023-02-15T13:18:54;5.50;99.90
50606;DHT22;36557;53.572;10.170;2023-02-15T13:21:32;5.60;99.90
50606;DHT22;36557;53.572;10.170;2023-02-15T13:24:17;5.40;99.90
50606;DHT22;36557;53.572;10.170;2023-02-15T13:26:45;5.50;99.90
50606;DHT22;36557;53.572;10.170;2023-02-15T13:29:20;5.50;99.90
50606;DHT22;36557;53.572;10.170;2023-02-15T13:31:47;5.40;99.90
50606;DHT22;36557;53.572;10.170;2023-02-15T13:34:28;5.70;99.90
50606;DHT22;36557;53.572;10.170;2023-02-15T13:37:12;5.90;99.90
50606;DHT22;36557;53.572;10.170;2023-02-15T13:40:02;6.00;99.90
50606;DHT22;36557;53.572;10.170;2023-02-15T13:42:56;6.20;99.90
50606;DHT22;36557;53.572;10.170;2023-02-15T13:45:41;6.20;99.90
50606;DHT22;36557;53.572;10.170;2023-02-15T13:51:36;5.80;99.90
50606;DHT22;36557;53.572;10.170;2023-02-15T13:59:47;5.90;99.90
50606;DHT22;36557;53.572;10.170;2023-02-15T14:05:29;5.80;99.90
50606;DHT22;36557;53.572;10.170;2023-02-15T14:10:40;5.90;99.90
50606;DHT22;36557;53.572;10.170;2023-02-15T14:13:17;5.80;99.90
50606;DHT22;36557;53.572;10.170;2023-02-15T14:15:50;5.80;99.90
50606;DHT22;36557;53.572;10.170;2023-02-15T14:18:30;5.80;99.90
50606;DHT22;36557;53.572;10.170;2023-02-15T14:21:23;5.90;99.90
50606;DHT22;36557;53.572;10.170;2023-02-15T14:31:39;6.30;99.90
50606;DHT22;36557;53.572;10.170;2023-02-15T14:34:24;6.20;99.90
50606;DHT22;36557;53.572;10.170;2023-02-15T14:36:51;6.40;99.90
50606;DHT22;36557;53.572;10.170;2023-02-15T14:42:40;6.30;99.90
50606;DHT22;36557;53.572;10.170;2023-02-15T14:50:39;6.30;99.90
50606;DHT22;36557;53.572;10.170;2023-02-15T14:58:55;6.20;99.90
50606;DHT22;36557;53.572;10.170;2023-02-15T15:01:32;6.10;99.90
50606;DHT22;36557;53.572;10.170;2023-02-15T15:06:32;6.20;99.90
50606;DHT22;36557;53.572;10.170;2023-02-15T15:09:12;6.10;99.90
50606;DHT22;36557;53.572;10.170;2023-02-15T15:11:45;6.10;99.90
50606;DHT22;36557;53.572;10.170;2023-02-15T15:17:04;6.20;99.90
50606;DHT22;36557;53.572;10.170;2023-02-15T15:22:21;6.20;99.90
50606;DHT22;36557;53.572;10.170;2023-02-15T15:25:00;6.10;99.90
50606;DHT22;36557;53.572;10.170;2023-02-15T15:36:40;6.00;99.90
50606;DHT22;36557;53.572;10.170;2023-02-15T15:49:16;5.90;99.90
50606;DHT22;36557;53.572;10.170;2023-02-15T15:51:44;5.80;99.90
50606;DHT22;36557;53.572;10.170;2023-02-15T15:54:19;5.70;99.90
50606;DHT22;36557;53.572;10.170;2023-02-15T15:56:52;5.70;99.90
50606;DHT22;36557;53.572;10.170;2023-02-15T15:59:25;5.60;99.90
50606;DHT22;36557;53.572;10.170;2023-02-15T16:01:52;5.50;99.90
50606;DHT22;36557;53.572;10.170;2023-02-15T16:04:25;5.40;99.90
50606;DHT22;36557;53.572;10.170;2023-02-15T16:06:52;5.50;99.90
50606;DHT22;36557;53.572;10.170;2023-02-15T16:11:48;5.30;99.90
50606;DHT22;36557;53.572;10.170;2023-02-15T16:14:24;5.30;99.90
50606;DHT22;36557;53.572;10.170;2023-02-15T16:16:55;5.20;99.90
50606;DHT22;36557;53.572;10.170;2023-02-15T16:19:24;5.10;99.90
50606;DHT22;36557;53.572;10.170;2023-02-15T16:21:51;5.10;99.90
50606;DHT22;36557;53.572;10.170;2023-02-15T16:24:41;5.00;99.90
50606;DHT22;36557;53.572;10.170;2023-02-15T16:27:17;5.00;99.90
50606;DHT22;36557;53.572;10.170;2023-02-15T16:29:44;4.90;99.90
50606;DHT22;36557;53.572;10.170;2023-02-15T16:34:57;4.80;99.90
50606;DHT22;36557;53.572;10.170;2023-02-15T16:37:26;4.70;99.90
50606;DHT22;36557;53.572;10.170;2023-02-15T16:39:54;4.70;99.90
50606;DHT22;36557;53.572;10.170;2023-02-15T16:42:20;4.70;99.90
50606;DHT22;36557;53.572;10.170;2023-02-15T16:44:53;4.70;99.90
50606;DHT22;36557;53.572;10.170;2023-02-15T16:47:25;4.70;99.90
50606;DHT22;36557;53.572;10.170;2023-02-15T16:49:53;4.60;99.90
50606;DHT22;36557;53.572;10.170;2023-02-15T16:52:25;4.60;99.90
50606;DHT22;36557;53.572;10.170;2023-02-15T16:54:56;4.60;99.90
50606;DHT22;36557;53.572;10.170;2023-02-15T16:57:25;4.40;99.90
50606;DHT22;36557;53.572;10.170;2023-02-15T16:59:54;4.50;99.90
50606;DHT22;36557;53.572;10.170;2023-02-15T17:02:25;4.40;99.90
50606;DHT22;36557;53.572;10.170;2023-02-15T17:07:41;4.30;99.90
50606;DHT22;36557;53.572;10.170;2023-02-15T17:12:53;4.20;99.90
50606;DHT22;36557;53.572;10.170;2023-02-15T17:15:45;4.10;99.90
50606;DHT22;36557;53.572;10.170;2023-02-15T17:21:09;4.10;99.90
50606;DHT22;36557;53.572;10.170;2023-02-15T17:23:39;4.00;99.90
50606;DHT22;36557;53.572;10.170;2023-02-15T17:26:24;4.00;99.90
50606;DHT22;36557;53.572;10.170;2023-02-15T17:28:57;3.90;99.90
50606;DHT22;36557;53.572;10.170;2023-02-15T17:31:25;3.90;99.90
50606;DHT22;36557;53.572;10.170;2023-02-15T17:33:54;3.90;99.90
50606;DHT22;36557;53.572;10.170;2023-02-15T17:36:23;3.80;99.90
50606;DHT22;36557;53.572;10.170;2023-02-15T17:39:06;3.70;99.90
50606;DHT22;36557;53.572;10.170;2023-02-15T17:41:34;3.70;99.90
50606;DHT22;36557;53.572;10.170;2023-02-15T17:44:01;3.60;99.90
50606;DHT22;36557;53.572;10.170;2023-02-15T17:46:33;3.50;99.90
50606;DHT22;36557;53.572;10.170;2023-02-15T17:49:00;3.50;99.90
50606;DHT22;36557;53.572;10.170;2023-02-15T17:51:26;3.60;99.90
50606;DHT22;36557;53.572;10.170;2023-02-15T17:53:52;3.50;99.90
50606;DHT22;36557;53.572;10.170;2023-02-15T17:56:37;3.50;99.90
50606;DHT22;36557;53.572;10.170;2023-02-15T17:59:03;3.40;99.90
50606;DHT22;36557;53.572;10.170;2023-02-15T18:01:39;3.40;99.90
50606;DHT22;36557;53.572;10.170;2023-02-15T18:04:24;3.40;99.90
50606;DHT22;36557;53.572;10.170;2023-02-15T18:07:12;3.40;99.90
50606;DHT22;36557;53.572;10.170;2023-02-15T18:09:56;3.30;99.90
50606;DHT22;36557;53.572;10.170;2023-02-15T18:12:40;3.30;99.90
50606;DHT22;36557;53.572;10.170;2023-02-15T18:15:07;3.30;99.90
50606;DHT22;36557;53.572;10.170;2023-02-15T18:17:39;3.30;99.90
50606;DHT22;36557;53.572;10.170;2023-02-15T18:20:27;3.20;99.90
50606;DHT22;36557;53.572;10.170;2023-02-15T18:22:54;3.20;99.90
50606;DHT22;36557;53.572;10.170;2023-02-15T18:25:21;3.10;99.90
50606;DHT22;36557;53.572;10.170;2023-02-15T18:27:50;3.10;99.90
50606;DHT22;36557;53.572;10.170;2023-02-15T18:30:21;3.10;99.90
50606;DHT22;36557;53.572;10.170;2023-02-15T18:32:49;3.00;99.90
50606;DHT22;36557;53.572;10.170;2023-02-15T18:35:18;3.00;99.90
50606;DHT22;36557;53.572;10.170;2023-02-15T18:37:44;3.00;99.90
50606;DHT22;36557;53.572;10.170;2023-02-15T18:40:22;3.00;99.90
50606;DHT22;36557;53.572;10.170;2023-02-15T18:42:49;2.90;99.90
50606;DHT22;36557;53.572;10.170;2023-02-15T18:45:26;2.90;99.90
50606;DHT22;36557;53.572;10.170;2023-02-15T18:47:53;2.80;99.90
50606;DHT22;36557;53.572;10.170;2023-02-15T18:50:20;2.80;99.90
50606;DHT22;36557;53.572;10.170;2023-02-15T18:52:48;2.90;99.90
50606;DHT22;36557;53.572;10.170;2023-02-15T18:55:23;2.80;99.90
50606;DHT22;36557;53.572;10.170;2023-02-15T18:57:51;2.80;99.90
50606;DHT22;36557;53.572;10.170;2023-02-15T19:00:19;2.80;99.90
50606;DHT22;36557;53.572;10.170;2023-02-15T19:02:45;2.90;99.90
50606;DHT22;36557;53.572;10.170;2023-02-15T19:05:11;2.80;99.90
50606;DHT22;36557;53.572;10.170;2023-02-15T19:07:38;2.70;99.90
50606;DHT22;36557;53.572;10.170;2023-02-15T19:10:05;2.70;99.90
50606;DHT22;36557;53.572;10.170;2023-02-15T19:12:32;2.80;99.90